Santa Cruz do Capibaribe, Brazil
Current Conditions -  °F | °C
As of 3:00 AM on Monday 22 Dec 2014 (Local Time) from SBKG Reporting Station
Haze Haze  
Wind Chill: 70°   Ceiling: 700
Heat Index: 70°   Visibility: 1.8mi
Dew Point: 70°   Wind: 8mph
Humidity: 100%   Direction: 100°E
Pressure: 29.94"   Gusts: NA
Location:  7.96°S, 36.2°W
Report Text: SBKG 220600Z 10007KT 3000 BR BKN007 BKN010 21/21 Q1014
Loading
Personal Weather Stations






























Interactive Weather Map New forecast layout! Learn more

10-Day Weather Forecast

Advertisements
Track Severe Weather on mobile